Time;durP1;ratioP1;P1;durP2;ratioP2;P2;SDS_P1;SDS_P2;PMS_P1;PMS_P2;Temp;Humidity;BMP_temperature;BMP_pressure;BME280_temperature;BME280_humidity;BME280_pressure;Samples;Min_cycle;Max_cycle;Signal;HPM_P1;HPM_P2
2021/05/10 00:00:53;;;;;;;3.13;0.98;;;22.10;32.10;;;;;;4997072;28;20101;-80
2021/05/10 00:03:23;;;;;;;2.17;0.70;;;22.10;32.00;;;;;;4984548;28;20029;-80
2021/05/10 00:05:50;;;;;;;1.50;0.80;;;22.10;32.00;;;;;;4980451;28;20022;-80
2021/05/10 00:08:16;;;;;;;2.65;0.60;;;22.10;32.20;;;;;;5004641;28;20081;-80
2021/05/10 00:10:42;;;;;;;1.42;0.60;;;22.00;32.20;;;;;;4984770;28;20027;-80
2021/05/10 00:13:10;;;;;;;7.57;0.93;;;22.00;32.30;;;;;;4984414;28;20057;-80
2021/05/10 00:15:36;;;;;;;1.67;0.70;;;22.00;32.20;;;;;;4986250;28;20044;-79
2021/05/10 00:18:04;;;;;;;4.00;0.90;;;22.00;31.90;;;;;;4992792;28;20379;-80
2021/05/10 00:20:31;;;;;;;1.48;0.70;;;22.00;31.90;;;;;;4997495;28;20403;-80
2021/05/10 00:22:57;;;;;;;4.18;0.88;;;22.00;31.90;;;;;;4988564;28;20026;-80
2021/05/10 00:25:24;;;;;;;3.35;0.88;;;22.00;31.90;;;;;;4989559;28;20073;-80
2021/05/10 00:27:50;;;;;;;2.65;0.75;;;22.00;32.30;;;;;;4996896;28;20029;-80
2021/05/10 00:30:16;;;;;;;2.83;0.82;;;21.90;32.60;;;;;;4993667;28;20032;-81
2021/05/10 00:32:42;;;;;;;2.55;0.80;;;21.80;32.90;;;;;;4999181;28;20037;-80
2021/05/10 00:35:08;;;;;;;4.35;1.08;;;21.70;33.10;;;;;;4997501;28;20027;-80
2021/05/10 00:37:34;;;;;;;5.28;1.27;;;21.80;33.30;;;;;;5001044;28;20145;-80
2021/05/10 00:40:00;;;;;;;4.60;0.70;;;21.70;33.40;;;;;;5006214;28;20154;-80
2021/05/10 00:42:25;;;;;;;4.13;0.90;;;21.60;33.50;;;;;;5010873;28;20163;-80
2021/05/10 00:44:51;;;;;;;1.88;0.85;;;21.50;33.60;;;;;;4993562;28;20102;-80
2021/05/10 00:47:17;;;;;;;1.88;0.80;;;21.50;33.70;;;;;;5005515;28;20045;-80
2021/05/10 00:49:42;;;;;;;1.88;0.73;;;21.40;33.70;;;;;;4993858;28;20073;-80
2021/05/10 00:52:08;;;;;;;2.10;0.95;;;21.40;33.70;;;;;;4992892;28;20112;-80
2021/05/10 00:54:34;;;;;;;3.95;1.45;;;21.40;33.70;;;;;;5002241;28;20036;-80
2021/05/10 00:57:00;;;;;;;3.83;0.88;;;21.40;33.70;;;;;;4991902;28;20044;-80
2021/05/10 00:59:26;;;;;;;2.40;0.95;;;21.40;33.70;;;;;;4993277;28;20467;-80
2021/05/10 01:01:52;;;;;;;1.48;0.88;;;21.40;33.70;;;;;;4983718;28;20478;-80
2021/05/10 01:04:18;;;;;;;1.55;0.80;;;21.40;33.80;;;;;;4989293;28;20153;-80
2021/05/10 01:06:44;;;;;;;1.30;0.70;;;21.30;33.90;;;;;;5000256;28;20105;-80
2021/05/10 01:09:10;;;;;;;1.27;0.80;;;21.30;33.90;;;;;;5002550;28;20027;-80
2021/05/10 01:11:36;;;;;;;2.25;1.23;;;21.20;34.00;;;;;;4997025;28;20022;-80
2021/05/10 01:14:02;;;;;;;2.47;0.80;;;21.20;34.10;;;;;;4988856;28;20029;-80
2021/05/10 01:16:27;;;;;;;2.15;0.80;;;21.20;34.30;;;;;;5000372;28;20038;-80
2021/05/10 01:18:54;;;;;;;4.15;1.00;;;21.20;34.20;;;;;;4996986;28;20122;-80
2021/05/10 01:21:21;;;;;;;4.00;1.10;;;21.10;34.20;;;;;;4994947;28;20116;-80
2021/05/10 01:23:47;;;;;;;4.28;1.30;;;21.10;34.20;;;;;;4993096;28;20038;-80
2021/05/10 01:26:14;;;;;;;3.35;0.80;;;21.10;34.20;;;;;;5008977;28;20018;-80
2021/05/10 01:28:41;;;;;;;2.40;1.00;;;21.10;34.30;;;;;;5008757;28;20022;-80
2021/05/10 01:31:07;;;;;;;2.47;0.98;;;21.10;34.40;;;;;;5001387;28;20030;-79
2021/05/10 01:33:32;;;;;;;3.08;1.10;;;21.00;34.50;;;;;;4993915;28;20041;-80
2021/05/10 01:35:58;;;;;;;2.58;0.98;;;21.00;34.50;;;;;;5009224;28;20482;-80
2021/05/10 01:38:24;;;;;;;6.35;1.13;;;21.00;34.60;;;;;;4988115;28;20085;-80
2021/05/10 01:40:50;;;;;;;4.65;1.10;;;21.00;34.50;;;;;;5008480;28;20488;-80
2021/05/10 01:43:17;;;;;;;2.10;1.10;;;21.00;34.50;;;;;;5006583;28;20022;-80
2021/05/10 01:45:44;;;;;;;3.60;0.90;;;21.10;34.50;;;;;;4994874;28;20125;-80
2021/05/10 01:48:11;;;;;;;2.03;0.82;;;21.00;34.50;;;;;;4997419;28;20038;-80
2021/05/10 01:50:39;;;;;;;1.80;1.00;;;21.00;34.50;;;;;;5000196;28;20054;-80
2021/05/10 01:53:06;;;;;;;1.85;0.77;;;21.10;34.50;;;;;;5000143;28;20398;-80
2021/05/10 01:55:32;;;;;;;3.30;0.80;;;21.10;34.50;;;;;;4996785;28;20068;-80
2021/05/10 01:57:59;;;;;;;2.88;1.08;;;21.10;34.40;;;;;;5006553;28;20170;-80
2021/05/10 02:00:30;;;;;;;2.17;0.60;;;21.10;34.40;;;;;;4995582;28;20026;-80
2021/05/10 02:03:11;;;;;;;2.20;0.95;;;21.10;34.40;;;;;;4993947;28;20030;-80
2021/05/10 02:05:37;;;;;;;3.70;1.10;;;21.10;34.40;;;;;;4999750;28;20026;-80
2021/05/10 02:08:05;;;;;;;2.35;0.80;;;21.10;34.50;;;;;;5004271;28;20026;-80
2021/05/10 02:10:42;;;;;;;2.92;1.02;;;21.00;34.60;;;;;;5002396;28;20193;-80
2021/05/10 02:13:22;;;;;;;1.58;0.88;;;21.00;34.60;;;;;;4998727;28;20105;-80
2021/05/10 02:15:57;;;;;;;5.63;1.10;;;21.10;34.60;;;;;;4996038;28;20034;-79
2021/05/10 02:18:28;;;;;;;2.72;1.00;;;21.00;34.40;;;;;;5000004;28;20053;-80
2021/05/10 02:20:54;;;;;;;4.47;0.80;;;21.10;34.50;;;;;;5005886;28;20052;-80
2021/05/10 02:23:32;;;;;;;4.40;1.23;;;21.10;34.50;;;;;;5002229;28;20030;-80
2021/05/10 02:26:03;;;;;;;3.28;0.90;;;21.10;35.00;;;;;;5002198;28;20113;-80
2021/05/10 02:28:30;;;;;;;4.85;1.13;;;21.10;34.70;;;;;;5007260;28;20026;-80
2021/05/10 02:30:59;;;;;;;4.53;0.80;;;21.00;34.70;;;;;;4995503;28;20031;-80
2021/05/10 02:33:27;;;;;;;2.95;1.02;;;21.00;34.90;;;;;;4991962;28;20035;-80
2021/05/10 02:35:54;;;;;;;1.85;0.88;;;20.90;35.00;;;;;;5000618;28;20030;-80
2021/05/10 02:38:21;;;;;;;5.82;1.60;;;20.90;35.10;;;;;;5001443;28;20042;-81
2021/05/10 02:40:48;;;;;;;3.85;1.10;;;20.90;35.20;;;;;;5008727;28;20058;-80
2021/05/10 02:43:15;;;;;;;4.15;1.00;;;20.90;35.10;;;;;;5000451;28;20022;-80
2021/05/10 02:45:41;;;;;;;3.75;1.00;;;21.00;35.00;;;;;;4994742;28;20034;-80
2021/05/10 02:48:07;;;;;;;6.47;1.20;;;21.00;35.00;;;;;;5002123;28;20025;-80
2021/05/10 02:50:33;;;;;;;4.72;1.15;;;21.00;35.00;;;;;;4993161;28;20026;-80
2021/05/10 02:53:00;;;;;;;3.67;0.80;;;21.00;35.00;;;;;;4994996;28;20038;-81
2021/05/10 02:55:26;;;;;;;6.85;1.60;;;21.00;35.10;;;;;;4991681;28;20031;-80
2021/05/10 02:57:54;;;;;;;1.65;0.80;;;21.00;35.10;;;;;;4999056;28;20045;-81
2021/05/10 03:00:25;;;;;;;1.65;0.90;;;20.90;35.30;;;;;;5005134;28;20675;-80
2021/05/10 03:02:55;;;;;;;6.18;1.63;;;20.90;35.40;;;;;;4988061;28;20034;-81
2021/05/10 03:05:21;;;;;;;3.42;1.02;;;20.90;35.50;;;;;;5002889;28;20023;-81
2021/05/10 03:07:48;;;;;;;7.15;1.33;;;20.80;35.50;;;;;;4976233;28;20062;-80
2021/05/10 03:10:20;;;;;;;3.85;1.45;;;20.80;35.80;;;;;;4997261;28;20035;-81
2021/05/10 03:12:46;;;;;;;3.03;0.80;;;20.80;36.00;;;;;;4993319;28;20092;-81
2021/05/10 03:15:15;;;;;;;2.60;0.90;;;20.80;35.90;;;;;;5002478;28;20447;-80
2021/05/10 03:17:41;;;;;;;3.53;1.05;;;20.80;35.80;;;;;;5001643;28;20034;-80
2021/05/10 03:20:11;;;;;;;4.75;1.48;;;20.80;35.60;;;;;;4993389;28;20598;-80
2021/05/10 03:22:37;;;;;;;6.07;0.90;;;20.90;35.10;;;;;;4986299;28;20376;-81
2021/05/10 03:25:04;;;;;;;2.75;0.88;;;21.10;34.80;;;;;;5001919;28;20460;-80
2021/05/10 03:27:39;;;;;;;3.10;0.93;;;21.20;34.60;;;;;;5006270;28;20030;-80
2021/05/10 03:30:10;;;;;;;2.22;0.95;;;21.30;34.70;;;;;;4979791;28;20050;-80
2021/05/10 03:32:36;;;;;;;3.10;0.90;;;21.30;34.70;;;;;;5006698;28;20526;-80
2021/05/10 03:35:02;;;;;;;2.63;1.10;;;21.20;34.60;;;;;;4990327;28;20034;-80
2021/05/10 03:37:28;;;;;;;4.18;1.27;;;21.30;34.70;;;;;;5005866;28;20089;-81
2021/05/10 03:39:58;;;;;;;2.47;0.80;;;21.30;34.70;;;;;;4990300;28;20046;-80
2021/05/10 03:42:30;;;;;;;2.35;0.75;;;21.30;34.80;;;;;;4995587;28;20468;-81
2021/05/10 03:44:55;;;;;;;3.10;1.10;;;21.20;35.10;;;;;;4994180;28;20030;-81
2021/05/10 03:47:32;;;;;;;1.35;0.88;;;21.20;35.30;;;;;;4978406;28;20464;-81
2021/05/10 03:49:59;;;;;;;6.35;1.30;;;21.10;35.20;;;;;;4984026;28;20033;-80
2021/05/10 03:52:25;;;;;;;3.75;0.80;;;21.20;35.00;;;;;;5002023;28;20536;-81
2021/05/10 03:54:50;;;;;;;4.38;0.90;;;21.20;34.70;;;;;;5020775;28;20038;-80
2021/05/10 03:57:16;;;;;;;2.22;1.15;;;21.30;34.60;;;;;;4992356;28;20031;-80
2021/05/10 03:59:42;;;;;;;2.17;1.20;;;21.30;35.30;;;;;;4995814;28;20122;-81
2021/05/10 04:02:07;;;;;;;2.42;0.95;;;21.20;35.10;;;;;;5006139;28;20109;-81
2021/05/10 04:04:43;;;;;;;2.05;1.13;;;21.20;35.30;;;;;;4990739;28;20391;-81
2021/05/10 04:07:39;;;;;;;2.38;0.90;;;21.20;35.30;;;;;;4996261;28;20246;-80
2021/05/10 04:15:16;;;;;;;2.95;0.90;;;21.10;35.50;;;;;;4986854;28;20038;-80
2021/05/10 04:17:42;;;;;;;3.28;1.20;;;21.10;35.60;;;;;;4985180;28;20034;-81
2021/05/10 04:20:08;;;;;;;2.85;1.13;;;21.10;35.70;;;;;;5007722;28;20027;-80
2021/05/10 04:22:34;;;;;;;6.50;1.40;;;21.10;36.00;;;;;;4981776;28;20049;-80
2021/05/10 04:24:59;;;;;;;3.90;0.98;;;21.10;36.00;;;;;;4983948;28;20117;-80
2021/05/10 04:27:26;;;;;;;4.18;1.02;;;21.00;36.00;;;;;;5004147;28;20419;-81
2021/05/10 04:29:52;;;;;;;4.45;1.40;;;21.00;35.90;;;;;;4995334;28;20035;-80
2021/05/10 04:32:18;;;;;;;2.20;1.00;;;21.00;35.80;;;;;;4988700;28;20038;-81
2021/05/10 04:34:47;;;;;;;3.28;1.15;;;21.00;35.80;;;;;;4990956;28;20037;-81
2021/05/10 04:37:13;;;;;;;4.68;0.90;;;21.10;35.90;;;;;;5008772;28;20038;-81
2021/05/10 04:39:40;;;;;;;3.17;1.33;;;21.00;35.90;;;;;;5003912;28;20108;-81
2021/05/10 04:42:06;;;;;;;1.77;0.90;;;21.10;35.90;;;;;;4983554;28;20030;-82
2021/05/10 04:44:31;;;;;;;3.05;0.82;;;21.10;35.90;;;;;;4998661;28;20498;-81
2021/05/10 04:46:57;;;;;;;3.38;1.17;;;21.10;35.80;;;;;;5003083;28;20034;-81
2021/05/10 04:49:23;;;;;;;5.68;1.00;;;21.10;35.70;;;;;;4987386;28;20058;-81
2021/05/10 04:51:48;;;;;;;6.65;1.45;;;21.10;35.80;;;;;;4984780;28;20081;-82
2021/05/10 04:54:14;;;;;;;3.63;1.02;;;21.20;35.80;;;;;;4997316;28;20479;-81
2021/05/10 04:56:40;;;;;;;3.10;1.20;;;21.10;35.90;;;;;;5002437;28;20040;-81
2021/05/10 04:59:05;;;;;;;3.58;1.17;;;21.10;36.10;;;;;;4997190;28;20037;-82
2021/05/10 05:01:31;;;;;;;2.47;1.20;;;21.10;36.30;;;;;;4989908;28;20454;-82
2021/05/10 05:03:57;;;;;;;5.18;1.42;;;21.10;36.40;;;;;;4994700;28;20038;-83
2021/05/10 05:06:25;;;;;;;3.92;1.20;;;21.00;36.40;;;;;;4988613;28;20062;-81
2021/05/10 05:08:51;;;;;;;3.35;1.30;;;21.00;36.50;;;;;;4982976;28;20023;-81
2021/05/10 05:11:17;;;;;;;1.83;0.88;;;21.00;36.60;;;;;;4995081;28;20061;-81
2021/05/10 05:13:43;;;;;;;3.17;1.35;;;21.00;36.60;;;;;;4991088;28;20073;-81
2021/05/10 05:16:09;;;;;;;4.88;1.10;;;20.90;36.70;;;;;;4987724;28;20050;-81
2021/05/10 05:18:34;;;;;;;1.42;0.90;;;21.00;36.80;;;;;;4997835;28;20395;-80
2021/05/10 05:21:00;;;;;;;4.68;0.98;;;21.00;36.80;;;;;;4980024;28;20081;-81
2021/05/10 05:23:27;;;;;;;3.58;1.50;;;21.00;36.80;;;;;;4985916;28;20038;-81
2021/05/10 05:26:04;;;;;;;2.50;1.27;;;21.00;36.90;;;;;;4990578;28;20100;-81
2021/05/10 05:28:30;;;;;;;3.20;1.05;;;21.10;37.10;;;;;;4984429;28;20038;-81
2021/05/10 05:30:57;;;;;;;8.98;1.27;;;21.10;37.10;;;;;;4989177;28;20445;-81
2021/05/10 05:33:24;;;;;;;2.85;1.08;;;21.10;37.00;;;;;;4990997;28;20031;-80
2021/05/10 05:35:50;;;;;;;2.80;1.05;;;21.10;37.00;;;;;;4982091;28;20034;-81
2021/05/10 05:38:16;;;;;;;2.33;1.00;;;21.20;37.20;;;;;;4996279;28;20045;-81
2021/05/10 05:40:44;;;;;;;2.95;1.20;;;21.10;37.30;;;;;;5000896;28;20034;-81
2021/05/10 05:43:10;;;;;;;3.17;1.20;;;21.10;37.40;;;;;;4990528;28;20073;-81
2021/05/10 05:45:38;;;;;;;3.45;1.23;;;21.10;37.50;;;;;;4993966;28;20521;-81
2021/05/10 05:48:05;;;;;;;3.78;1.17;;;21.20;37.70;;;;;;4987806;28;20037;-81
2021/05/10 05:50:32;;;;;;;4.90;1.60;;;21.20;37.70;;;;;;5002342;28;20038;-80
2021/05/10 05:52:58;;;;;;;4.70;1.20;;;21.20;37.80;;;;;;4997933;28;20026;-80
2021/05/10 05:55:24;;;;;;;5.00;1.00;;;21.30;38.00;;;;;;4985570;28;20030;-80
2021/05/10 05:57:50;;;;;;;3.35;1.10;;;21.30;38.10;;;;;;4993296;28;20057;-81
2021/05/10 06:00:16;;;;;;;6.38;1.60;;;21.30;38.20;;;;;;4998965;28;20491;-81
2021/05/10 06:02:42;;;;;;;7.22;1.48;;;21.40;38.40;;;;;;4991162;28;20030;-81
2021/05/10 06:05:13;;;;;;;3.28;1.35;;;21.40;38.50;;;;;;4987086;28;20030;-81
2021/05/10 06:07:44;;;;;;;5.05;1.40;;;21.40;38.70;;;;;;4982158;28;20029;-81
2021/05/10 06:10:12;;;;;;;6.07;1.40;;;21.40;38.90;;;;;;5009779;28;20033;-81
2021/05/10 06:12:38;;;;;;;3.22;1.42;;;21.30;39.00;;;;;;4982179;28;20035;-81
2021/05/10 06:15:10;;;;;;;8.25;1.20;;;21.30;39.10;;;;;;4997894;28;20058;-81
2021/05/10 06:17:36;;;;;;;2.85;1.02;;;21.30;39.20;;;;;;4983627;28;20030;-81
2021/05/10 06:20:04;;;;;;;6.28;1.38;;;21.40;39.20;;;;;;4996072;28;20356;-81
2021/05/10 06:22:37;;;;;;;8.90;1.65;;;21.40;39.20;;;;;;4994573;28;20474;-81
2021/05/10 06:25:05;;;;;;;3.55;1.38;;;21.40;39.30;;;;;;4999490;28;20110;-81
2021/05/10 06:27:30;;;;;;;4.00;0.95;;;21.40;39.40;;;;;;4990676;28;20026;-81
2021/05/10 06:29:56;;;;;;;4.68;1.50;;;21.40;39.50;;;;;;4990050;28;20117;-80
2021/05/10 06:32:22;;;;;;;4.65;1.17;;;21.40;39.60;;;;;;5003003;28;20058;-81
2021/05/10 06:34:48;;;;;;;4.03;1.33;;;21.40;39.50;;;;;;4990906;28;20472;-81
2021/05/10 06:37:18;;;;;;;3.22;1.48;;;21.40;39.60;;;;;;4989241;28;20080;-82
2021/05/10 06:39:45;;;;;;;6.70;1.92;;;21.40;39.70;;;;;;4991111;28;20042;-81
2021/05/10 06:42:11;;;;;;;4.95;1.52;;;21.40;39.60;;;;;;4998282;28;20046;-81
2021/05/10 06:44:36;;;;;;;4.60;1.65;;;21.50;39.60;;;;;;4985404;28;20027;-81
2021/05/10 06:47:02;;;;;;;5.47;1.35;;;21.60;39.40;;;;;;5000721;28;20121;-81
2021/05/10 06:49:28;;;;;;;4.20;1.35;;;21.60;39.30;;;;;;4995418;28;20054;-81
2021/05/10 06:51:53;;;;;;;3.90;1.13;;;21.70;39.10;;;;;;4986842;28;20054;-81
2021/05/10 06:54:19;;;;;;;1.92;1.17;;;21.80;38.80;;;;;;4991902;28;20503;-81
2021/05/10 06:56:45;;;;;;;5.38;1.52;;;22.00;38.50;;;;;;4984836;28;20038;-81
2021/05/10 06:59:10;;;;;;;2.97;1.15;;;22.00;38.30;;;;;;4994433;28;20495;-81
2021/05/10 07:01:46;;;;;;;2.85;1.13;;;22.10;38.20;;;;;;5009141;28;20034;-81
2021/05/10 07:04:11;;;;;;;4.22;1.00;;;22.20;38.00;;;;;;4996047;28;20018;-81
2021/05/10 07:06:37;;;;;;;5.10;1.67;;;22.40;37.70;;;;;;4984839;28;20446;-81
2021/05/10 07:09:22;;;;;;;8.65;1.92;;;22.40;38.00;;;;;;4988818;28;20105;-81
2021/05/10 07:11:48;;;;;;;2.53;1.33;;;22.60;37.30;;;;;;5003599;28;20077;-81
2021/05/10 07:14:14;;;;;;;4.47;1.20;;;22.60;37.30;;;;;;4991551;28;20538;-81
2021/05/10 07:16:42;;;;;;;3.17;1.30;;;22.70;37.90;;;;;;5000468;28;20396;-81
2021/05/10 07:19:07;;;;;;;2.30;1.00;;;22.70;37.40;;;;;;4987949;28;20035;-81
2021/05/10 07:21:52;;;;;;;4.78;1.65;;;22.80;37.20;;;;;;4990694;28;20018;-81
2021/05/10 07:24:18;;;;;;;6.90;1.27;;;22.80;36.80;;;;;;4993194;28;20045;-81
2021/05/10 07:27:09;;;;;;;5.00;1.30;;;22.80;36.60;;;;;;4990805;28;20014;-81
2021/05/10 07:29:35;;;;;;;4.72;1.10;;;22.80;36.40;;;;;;4993531;28;20033;-81
2021/05/10 07:32:01;;;;;;;6.05;1.20;;;22.80;36.50;;;;;;4992603;28;20047;-81
2021/05/10 07:34:27;;;;;;;2.47;1.17;;;22.80;36.50;;;;;;4997276;28;20030;-81
2021/05/10 07:36:53;;;;;;;3.40;1.10;;;23.00;36.40;;;;;;4996941;28;20038;-81
2021/05/10 07:39:18;;;;;;;3.13;1.10;;;23.20;35.90;;;;;;5009204;28;20534;-81
2021/05/10 07:41:44;;;;;;;7.25;1.27;;;23.30;35.40;;;;;;5002247;28;20104;-81
2021/05/10 07:44:10;;;;;;;5.07;1.60;;;23.50;35.10;;;;;;4998566;28;20030;-81
2021/05/10 07:46:35;;;;;;;5.32;1.55;;;23.60;35.00;;;;;;4994715;28;20058;-81
2021/05/10 07:49:01;;;;;;;2.10;0.93;;;23.70;34.90;;;;;;4992982;28;20054;-81
2021/05/10 07:51:27;;;;;;;4.22;1.45;;;23.80;35.20;;;;;;4993357;28;20057;-81
2021/05/10 07:53:53;;;;;;;3.38;1.45;;;24.00;34.40;;;;;;5004861;28;20036;-81
2021/05/10 07:56:19;;;;;;;5.85;1.45;;;24.10;34.40;;;;;;4999816;28;20112;-81
2021/05/10 07:58:46;;;;;;;3.80;1.10;;;24.30;34.10;;;;;;4998954;28;20161;-81
2021/05/10 08:01:12;;;;;;;6.18;1.30;;;24.50;33.90;;;;;;5006942;28;20034;-81
2021/05/10 08:03:39;;;;;;;13.65;1.38;;;24.60;33.60;;;;;;4990211;28;20487;-81
2021/05/10 08:06:09;;;;;;;4.07;1.23;;;24.60;33.50;;;;;;5004076;28;20026;-82
2021/05/10 08:08:36;;;;;;;4.63;1.48;;;24.80;33.50;;;;;;4995880;28;20065;-82
2021/05/10 08:11:05;;;;;;;6.97;1.48;;;24.90;33.30;;;;;;4980851;28;20651;-82
2021/05/10 08:13:31;;;;;;;6.82;1.08;;;25.10;33.10;;;;;;4998967;28;20030;-81
2021/05/10 08:15:57;;;;;;;6.43;1.25;;;25.10;32.80;;;;;;4993504;28;20136;-80
2021/05/10 08:18:23;;;;;;;2.67;1.15;;;25.10;32.60;;;;;;4986368;28;20030;-80
2021/05/10 08:20:49;;;;;;;6.45;1.50;;;25.20;32.40;;;;;;5002616;28;20096;-80
2021/05/10 08:23:15;;;;;;;10.27;1.42;;;25.30;32.20;;;;;;5004107;28;20037;-80
2021/05/10 08:25:42;;;;;;;5.38;1.05;;;25.30;32.10;;;;;;4997797;28;20034;-79
2021/05/10 08:28:09;;;;;;;5.97;1.20;;;25.50;31.80;;;;;;4993683;28;20031;-80
2021/05/10 08:30:34;;;;;;;6.95;1.50;;;25.60;31.60;;;;;;4992173;28;20027;-79
2021/05/10 08:33:01;;;;;;;6.13;1.17;;;25.50;31.30;;;;;;4996650;28;20040;-79
2021/05/10 08:35:28;;;;;;;8.63;1.00;;;25.60;31.40;;;;;;4991042;28;20499;-79
2021/05/10 08:37:53;;;;;;;7.80;1.60;;;25.70;31.30;;;;;;4974815;28;20035;-79
2021/05/10 08:40:19;;;;;;;4.07;1.50;;;25.80;31.10;;;;;;4989170;28;20844;-79
2021/05/10 08:42:45;;;;;;;4.03;1.00;;;25.80;31.40;;;;;;4978743;28;20023;-79
2021/05/10 08:45:22;;;;;;;2.22;1.02;;;25.90;31.40;;;;;;5000439;28;20038;-79
2021/05/10 08:47:48;;;;;;;5.57;1.35;;;25.90;31.20;;;;;;4982757;28;20034;-79
2021/05/10 08:50:15;;;;;;;4.03;0.98;;;26.00;31.40;;;;;;4994504;28;20738;-79
2021/05/10 08:52:42;;;;;;;3.35;1.10;;;26.10;31.30;;;;;;4984062;28;20138;-80
2021/05/10 08:55:08;;;;;;;5.43;1.73;;;26.20;31.20;;;;;;4982716;28;20509;-79
2021/05/10 08:57:34;;;;;;;2.67;1.08;;;26.20;31.10;;;;;;4993248;28;20081;-80
2021/05/10 09:00:00;;;;;;;5.15;1.20;;;26.30;31.00;;;;;;5004109;28;20042;-80
2021/05/10 09:02:35;;;;;;;4.80;1.10;;;26.40;30.80;;;;;;4998441;28;20524;-79
2021/05/10 09:05:11;;;;;;;4.68;1.35;;;26.40;30.60;;;;;;4976834;28;20096;-79
2021/05/10 09:07:37;;;;;;;5.95;1.65;;;26.40;30.70;;;;;;5003081;28;20430;-79
2021/05/10 09:10:11;;;;;;;5.07;1.10;;;26.40;30.70;;;;;;4985028;28;20087;-79
2021/05/10 09:12:45;;;;;;;6.78;1.48;;;26.50;30.70;;;;;;4988365;28;20029;-81
2021/05/10 09:15:25;;;;;;;6.70;1.48;;;26.60;30.50;;;;;;4983406;28;20386;-81
2021/05/10 09:18:09;;;;;;;4.80;1.20;;;26.70;30.70;;;;;;4978942;28;20037;-80
2021/05/10 09:20:40;;;;;;;6.68;1.40;;;26.80;30.50;;;;;;5001208;28;20026;-80
2021/05/10 09:23:11;;;;;;;5.30;1.40;;;26.80;30.30;;;;;;4977758;28;20415;-81
2021/05/10 09:25:38;;;;;;;12.73;1.40;;;26.80;30.10;;;;;;4996092;28;20521;-81
2021/05/10 09:28:12;;;;;;;9.23;1.73;;;26.90;30.00;;;;;;4996424;28;20074;-81
2021/05/10 09:30:46;;;;;;;11.82;1.27;;;27.00;30.80;;;;;;5006461;28;20038;-81
2021/05/10 09:33:22;;;;;;;9.55;1.60;;;27.10;29.90;;;;;;4985753;28;20134;-81
2021/05/10 09:35:52;;;;;;;5.30;1.35;;;27.10;29.60;;;;;;4984261;28;20062;-81
2021/05/10 09:38:22;;;;;;;10.40;2.00;;;27.20;29.80;;;;;;5008186;28;20526;-81
2021/05/10 09:40:54;;;;;;;9.95;2.05;;;27.20;29.70;;;;;;4993083;28;20038;-81
2021/05/10 09:43:26;;;;;;;5.88;1.02;;;27.20;30.00;;;;;;4999617;28;20030;-81
2021/05/10 09:45:54;;;;;;;7.97;1.98;;;27.30;29.90;;;;;;4973917;28;20483;-80
2021/05/10 09:48:25;;;;;;;6.32;1.58;;;27.30;29.70;;;;;;4993418;28;20463;-81
2021/05/10 09:50:57;;;;;;;5.90;1.75;;;27.30;29.50;;;;;;4985920;28;20050;-81
2021/05/10 09:53:39;;;;;;;16.08;2.15;;;27.30;29.40;;;;;;4991402;28;20026;-81
2021/05/10 09:56:32;;;;;;;4.95;1.05;;;27.30;29.10;;;;;;4995132;28;20022;-81
2021/05/10 09:59:04;;;;;;;7.97;1.25;;;27.40;29.20;;;;;;5006837;28;20123;-80
2021/05/10 10:01:40;;;;;;;3.17;1.00;;;27.40;29.10;;;;;;5002951;28;20109;-80
2021/05/10 10:04:06;;;;;;;4.25;1.20;;;27.50;29.10;;;;;;4999661;28;20398;-80
2021/05/10 10:06:32;;;;;;;4.88;1.10;;;27.40;29.00;;;;;;5008175;28;20022;-81
2021/05/10 10:08:58;;;;;;;6.40;1.33;;;27.40;28.90;;;;;;4998710;28;20062;-81
2021/05/10 10:11:25;;;;;;;7.25;0.98;;;27.40;29.00;;;;;;4988284;28;20104;-81
2021/05/10 10:13:53;;;;;;;9.98;1.33;;;27.50;29.20;;;;;;4978935;28;20034;-81
2021/05/10 10:16:20;;;;;;;6.75;1.10;;;27.60;29.00;;;;;;4992744;28;20030;-81
2021/05/10 10:18:47;;;;;;;8.82;1.15;;;27.70;29.10;;;;;;4997047;28;20031;-81
2021/05/10 10:21:15;;;;;;;8.98;1.45;;;27.80;29.50;;;;;;5004402;28;20117;-80
2021/05/10 10:23:43;;;;;;;8.80;1.52;;;27.80;28.80;;;;;;5007467;28;20030;-81
2021/05/10 10:26:14;;;;;;;7.10;1.35;;;27.90;28.90;;;;;;5010767;28;20029;-81
2021/05/10 10:28:41;;;;;;;5.15;1.27;;;28.00;29.00;;;;;;5008665;28;20030;-81
2021/05/10 10:31:28;;;;;;;8.27;1.40;;;28.10;28.70;;;;;;5010767;28;20035;-82
2021/05/10 10:34:00;;;;;;;4.93;1.20;;;28.20;28.70;;;;;;5006894;28;20022;-82
2021/05/10 10:36:29;;;;;;;8.85;1.42;;;28.10;28.20;;;;;;5009075;28;20072;-81
2021/05/10 10:39:21;;;;;;;8.63;2.15;;;28.00;28.50;;;;;;4997866;28;20073;-82
2021/05/10 10:41:57;;;;;;;5.72;1.23;;;28.10;28.70;;;;;;4975394;28;20487;-81
2021/05/10 10:44:27;;;;;;;3.90;1.23;;;28.10;28.70;;;;;;4996231;28;20038;-81
2021/05/10 10:46:53;;;;;;;11.48;1.33;;;28.20;28.80;;;;;;5012325;28;20395;-81
2021/05/10 10:49:37;;;;;;;6.53;1.75;;;28.20;28.70;;;;;;4999291;28;20019;-81
2021/05/10 10:52:14;;;;;;;8.88;1.20;;;28.20;28.30;;;;;;4996597;28;20023;-81
2021/05/10 10:54:40;;;;;;;7.95;1.02;;;28.30;28.50;;;;;;5006485;28;20479;-81
2021/05/10 10:57:05;;;;;;;7.85;1.67;;;28.40;28.20;;;;;;4976272;28;20081;-81
2021/05/10 10:59:39;;;;;;;6.40;1.50;;;28.50;28.40;;;;;;4999080;28;20109;-81
2021/05/10 11:02:24;;;;;;;12.27;1.58;;;28.50;28.40;;;;;;4987945;28;20166;-82
2021/05/10 11:05:08;;;;;;;7.18;1.17;;;28.40;28.10;;;;;;4995669;28;20014;-82
2021/05/10 11:08:03;;;;;;;5.00;1.42;;;28.40;27.90;;;;;;4980321;28;20031;-81
2021/05/10 11:10:58;;;;;;;7.72;1.63;;;28.50;27.90;;;;;;4993259;28;20545;-81
2021/05/10 11:13:28;;;;;;;6.30;1.67;;;28.60;28.00;;;;;;4990936;28;20480;-82
2021/05/10 11:15:56;;;;;;;10.95;1.73;;;28.60;28.20;;;;;;4986021;28;20063;-81
2021/05/10 11:18:50;;;;;;;7.00;1.92;;;28.60;28.10;;;;;;5001295;28;20027;-82
2021/05/10 11:21:26;;;;;;;6.75;1.13;;;28.70;28.00;;;;;;4990574;28;20031;-81
2021/05/10 11:23:59;;;;;;;8.95;1.90;;;28.80;28.20;;;;;;4982390;28;20026;-82
2021/05/10 11:26:47;;;;;;;6.38;1.20;;;28.70;28.00;;;;;;4996419;28;20023;-81
2021/05/10 11:29:25;;;;;;;5.35;1.48;;;28.70;28.50;;;;;;4991354;28;20391;-80
2021/05/10 11:31:52;;;;;;;6.45;1.42;;;28.90;28.20;;;;;;4993453;28;20023;-80
2021/05/10 11:34:37;;;;;;;10.52;2.00;;;29.00;27.90;;;;;;4996320;28;20031;-80
2021/05/10 11:37:06;;;;;;;6.80;1.27;;;29.10;27.90;;;;;;4991334;28;20033;-80
2021/05/10 11:39:34;;;;;;;5.38;1.23;;;29.10;27.40;;;;;;4974584;28;20054;-80
2021/05/10 11:42:05;;;;;;;11.50;1.63;;;29.10;27.20;;;;;;4994904;28;20494;-79
2021/05/10 11:44:35;;;;;;;6.38;1.27;;;29.10;27.20;;;;;;5003840;28;20074;-80
2021/05/10 11:47:02;;;;;;;11.15;2.05;;;28.90;27.50;;;;;;4994479;28;20034;-80
2021/05/10 11:49:35;;;;;;;7.88;1.17;;;28.90;27.40;;;;;;4998544;28;20097;-80
2021/05/10 11:52:07;;;;;;;11.75;1.77;;;29.00;27.50;;;;;;4984205;28;20033;-80
2021/05/10 11:54:35;;;;;;;9.65;2.25;;;29.00;27.30;;;;;;4987663;28;20026;-79
2021/05/10 11:57:03;;;;;;;8.23;1.25;;;29.00;27.10;;;;;;5009861;28;20034;-80
2021/05/10 12:01:58;;;;;;;6.80;1.40;;;28.90;27.30;;;;;;4987553;28;20529;-80
2021/05/10 12:04:29;;;;;;;3.80;1.30;;;28.80;27.30;;;;;;4983794;28;20066;-81
2021/05/10 12:06:56;;;;;;;3.88;1.15;;;28.80;27.50;;;;;;4977616;28;20027;-81
2021/05/10 12:09:48;;;;;;;7.50;1.80;;;28.90;27.40;;;;;;4987379;28;20030;-81
2021/05/10 12:12:13;;;;;;;5.93;1.10;;;28.80;27.20;;;;;;4997705;28;20037;-81
2021/05/10 12:14:40;;;;;;;13.80;1.58;;;28.90;27.30;;;;;;5002652;28;20022;-81
2021/05/10 12:17:08;;;;;;;6.82;1.30;;;28.90;27.10;;;;;;4981396;28;20027;-81
2021/05/10 12:19:56;;;;;;;7.78;1.48;;;28.80;27.20;;;;;;4994708;28;20368;-81
2021/05/10 12:22:24;;;;;;;8.10;1.23;;;28.80;27.30;;;;;;4993855;28;20027;-81
2021/05/10 12:25:19;;;;;;;11.32;1.58;;;28.80;27.20;;;;;;5001132;28;20483;-81
2021/05/10 12:27:45;;;;;;;8.27;1.40;;;28.80;27.00;;;;;;4992653;28;20034;-81
2021/05/10 12:30:12;;;;;;;13.88;1.42;;;28.80;27.00;;;;;;4996277;28;20483;-81
2021/05/10 12:32:43;;;;;;;7.20;1.00;;;28.80;26.90;;;;;;4994821;28;20496;-81
2021/05/10 12:35:11;;;;;;;9.07;1.67;;;28.80;26.80;;;;;;4992495;28;20436;-81
2021/05/10 12:37:57;;;;;;;10.23;1.90;;;28.80;26.80;;;;;;4989443;28;20051;-81
2021/05/10 12:40:26;;;;;;;9.80;1.42;;;28.90;26.90;;;;;;4989179;28;20122;-80
2021/05/10 12:43:12;;;;;;;7.38;1.52;;;28.90;26.90;;;;;;4990263;28;20040;-81
2021/05/10 12:45:57;;;;;;;10.20;1.60;;;29.00;27.00;;;;;;4987661;28;20026;-81
2021/05/10 12:48:39;;;;;;;6.03;1.40;;;28.90;26.30;;;;;;4988416;28;20145;-81
2021/05/10 12:51:21;;;;;;;19.02;1.88;;;28.80;26.10;;;;;;4991529;28;20034;-81
2021/05/10 12:54:00;;;;;;;7.15;1.35;;;28.80;25.70;;;;;;4983361;28;20034;-81
2021/05/10 12:56:27;;;;;;;7.85;1.30;;;28.70;25.60;;;;;;4988842;28;20026;-82
2021/05/10 12:58:53;;;;;;;6.75;1.25;;;28.70;25.80;;;;;;4982243;28;20039;-81
2021/05/10 13:01:22;;;;;;;9.32;1.48;;;28.80;26.00;;;;;;4982074;28;20554;-81
2021/05/10 13:03:58;;;;;;;11.35;1.70;;;28.80;25.60;;;;;;4993062;28;20030;-81